createdAt,value
2017-08-15T00:02:06.196Z,17.20
2017-08-15T00:04:33.748Z,17.20
2017-08-15T00:07:01.273Z,17.20
2017-08-15T00:09:28.804Z,17.20
2017-08-15T00:11:56.359Z,17.10
2017-08-15T00:14:24.653Z,17.00
2017-08-15T00:16:52.205Z,16.90
2017-08-15T00:19:19.764Z,17.00
2017-08-15T00:21:47.333Z,16.90
2017-08-15T00:24:14.888Z,16.90
2017-08-15T00:26:42.447Z,16.90
2017-08-15T00:29:09.977Z,16.90
2017-08-15T00:31:38.294Z,16.80
2017-08-15T00:34:05.821Z,16.80
2017-08-15T00:36:34.125Z,16.80
2017-08-15T00:39:01.682Z,16.80
2017-08-15T00:41:29.219Z,16.70
2017-08-15T00:43:57.516Z,16.60
2017-08-15T00:46:25.093Z,16.60
2017-08-15T00:48:52.760Z,16.60
2017-08-15T00:51:20.341Z,16.60
2017-08-15T00:53:47.983Z,16.60
2017-08-15T00:56:15.536Z,16.60
2017-08-15T00:58:43.071Z,16.60
2017-08-15T01:01:11.372Z,16.60
2017-08-15T01:03:38.940Z,16.60
2017-08-15T01:06:06.490Z,16.50
2017-08-15T01:08:34.018Z,16.50
2017-08-15T01:11:01.578Z,16.50
2017-08-15T01:13:29.890Z,16.50
2017-08-15T01:15:57.421Z,16.50
2017-08-15T01:18:24.973Z,16.60
2017-08-15T01:20:53.287Z,16.50
2017-08-15T01:23:20.821Z,16.50
2017-08-15T01:25:48.378Z,16.40
2017-08-15T01:28:15.917Z,16.30
2017-08-15T01:30:44.232Z,16.30
2017-08-15T01:33:11.800Z,16.30
2017-08-15T01:35:39.347Z,16.30
2017-08-15T01:38:06.876Z,16.30
2017-08-15T01:40:35.195Z,16.20
2017-08-15T01:43:02.741Z,16.20
2017-08-15T01:45:30.274Z,16.20
2017-08-15T01:47:58.600Z,16.10
2017-08-15T01:50:26.134Z,16.10
2017-08-15T01:52:53.666Z,16.10
2017-08-15T01:55:21.230Z,16.30
2017-08-15T01:57:49.530Z,16.60
2017-08-15T02:00:17.063Z,16.60
2017-08-15T02:02:44.617Z,16.80
2017-08-15T02:05:12.136Z,17.00
2017-08-15T02:07:39.691Z,17.10
2017-08-15T02:10:07.220Z,17.30
2017-08-15T02:12:35.532Z,17.40
2017-08-15T02:15:03.132Z,17.40
2017-08-15T02:17:30.754Z,17.50
2017-08-15T02:19:58.304Z,17.40
2017-08-15T02:22:25.838Z,17.20
2017-08-15T02:24:54.139Z,16.80
2017-08-15T02:27:21.689Z,16.80
2017-08-15T02:29:49.214Z,16.70
2017-08-15T02:32:17.526Z,16.40
2017-08-15T02:34:45.054Z,16.40
2017-08-15T02:37:13.344Z,16.30
2017-08-15T02:39:41.653Z,16.30
2017-08-15T02:42:09.742Z,16.20
2017-08-15T02:44:37.290Z,16.10
2017-08-15T02:47:04.828Z,16.10
2017-08-15T02:49:32.365Z,16.10
2017-08-15T02:52:00.676Z,16.00
2017-08-15T02:54:28.214Z,16.00
2017-08-15T02:56:55.768Z,16.00
2017-08-15T02:59:24.056Z,16.10
2017-08-15T03:01:51.578Z,16.10
2017-08-15T03:04:19.134Z,16.00
2017-08-15T03:06:46.669Z,16.00
2017-08-15T03:09:14.214Z,16.00
2017-08-15T03:11:41.739Z,16.00
2017-08-15T03:14:10.036Z,16.10
2017-08-15T03:16:37.564Z,16.00
2017-08-15T03:19:05.096Z,16.10
2017-08-15T03:21:32.644Z,16.10
2017-08-15T03:24:00.173Z,16.20
2017-08-15T03:26:27.729Z,16.20
2017-08-15T03:28:55.268Z,16.20
2017-08-15T03:31:23.592Z,16.20
2017-08-15T03:33:51.149Z,16.10
2017-08-15T03:36:18.695Z,16.20
2017-08-15T03:38:46.249Z,16.10
2017-08-15T03:41:13.781Z,16.10
2017-08-15T03:43:42.094Z,16.10
2017-08-15T03:46:09.637Z,16.20
2017-08-15T03:48:37.928Z,16.20
2017-08-15T03:51:05.475Z,16.20
2017-08-15T03:53:33.013Z,16.20
2017-08-15T03:56:01.335Z,16.20
2017-08-15T03:58:28.887Z,16.20
2017-08-15T04:00:56.408Z,16.20
2017-08-15T04:03:23.946Z,16.10
2017-08-15T04:05:51.497Z,16.20
2017-08-15T04:08:19.025Z,16.20
2017-08-15T04:10:46.585Z,16.30
2017-08-15T04:13:14.117Z,16.40
2017-08-15T04:15:42.418Z,16.30
2017-08-15T04:18:09.961Z,16.30
2017-08-15T04:20:37.497Z,16.40
2017-08-15T04:23:05.040Z,16.50
2017-08-15T04:25:32.573Z,16.60
2017-08-15T04:28:00.119Z,16.60
2017-08-15T04:30:27.679Z,16.60
2017-08-15T04:32:55.213Z,16.80
2017-08-15T04:35:23.537Z,17.00
2017-08-15T04:37:51.077Z,17.00
2017-08-15T04:40:18.607Z,17.20
2017-08-15T04:42:46.168Z,17.20
2017-08-15T04:45:14.457Z,17.00
2017-08-15T04:47:42.016Z,17.00
2017-08-15T04:50:09.557Z,17.00
2017-08-15T04:52:37.858Z,17.00
2017-08-15T04:55:05.413Z,17.00
2017-08-15T04:57:32.948Z,17.10
2017-08-15T05:00:01.241Z,17.10
2017-08-15T05:02:29.554Z,17.00
2017-08-15T05:04:57.089Z,17.00
2017-08-15T05:07:24.620Z,16.90
2017-08-15T05:09:52.928Z,16.90
2017-08-15T05:12:20.465Z,16.90
2017-08-15T05:14:48.892Z,16.90
2017-08-15T05:17:16.432Z,16.90
2017-08-15T05:19:44.002Z,17.00
2017-08-15T05:22:11.544Z,17.00
2017-08-15T05:24:39.084Z,17.10
2017-08-15T05:27:07.400Z,17.60
2017-08-15T05:29:34.944Z,17.60
2017-08-15T05:32:02.469Z,17.70
2017-08-15T05:34:30.770Z,18.20
2017-08-15T05:36:58.316Z,18.20
2017-08-15T05:39:26.618Z,18.60
2017-08-15T05:41:54.162Z,18.60
2017-08-15T05:44:21.692Z,18.70
2017-08-15T05:46:49.269Z,18.90
2017-08-15T05:49:17.585Z,19.20
2017-08-15T05:51:45.113Z,19.20
2017-08-15T05:54:13.434Z,19.30
2017-08-15T05:56:40.989Z,19.20
2017-08-15T05:59:08.528Z,19.30
2017-08-15T06:01:36.061Z,19.50
2017-08-15T06:04:04.402Z,19.70
2017-08-15T06:06:31.924Z,19.60
2017-08-15T06:08:59.461Z,19.70
2017-08-15T06:11:27.774Z,20.00
2017-08-15T06:13:55.325Z,20.00
2017-08-15T06:16:22.898Z,20.00
2017-08-15T06:18:50.424Z,20.00
2017-08-15T06:21:18.725Z,20.10
2017-08-15T06:23:46.299Z,20.00
2017-08-15T06:26:13.860Z,20.30
2017-08-15T06:28:41.394Z,20.40
2017-08-15T06:31:08.951Z,20.80
2017-08-15T06:33:36.477Z,21.60
2017-08-15T06:36:04.009Z,22.40
2017-08-15T06:38:31.555Z,22.70
2017-08-15T06:40:59.108Z,22.80
2017-08-15T06:43:26.629Z,23.80
2017-08-15T06:45:54.914Z,24.70
2017-08-15T06:48:23.334Z,25.30
2017-08-15T06:50:50.890Z,25.20
2017-08-15T06:53:18.415Z,25.60
2017-08-15T06:55:46.713Z,26.40
2017-08-15T06:58:14.277Z,26.30
2017-08-15T07:00:41.802Z,26.60
2017-08-15T07:03:10.113Z,26.80
2017-08-15T07:05:37.641Z,26.90
2017-08-15T07:08:05.948Z,27.20
2017-08-15T07:10:33.522Z,27.20
2017-08-15T07:13:01.056Z,27.50
2017-08-15T07:15:28.580Z,27.70
2017-08-15T07:17:56.128Z,27.90
2017-08-15T07:20:23.649Z,27.50
2017-08-15T07:22:51.186Z,27.80
2017-08-15T07:25:19.509Z,28.40
2017-08-15T07:27:47.037Z,28.30
2017-08-15T07:30:14.599Z,27.90
2017-08-15T07:32:42.146Z,28.00
2017-08-15T07:35:09.685Z,27.80
2017-08-15T07:37:37.997Z,28.10
2017-08-15T07:40:05.549Z,28.10
2017-08-15T07:42:33.077Z,28.20
2017-08-15T07:45:00.624Z,28.10
2017-08-15T07:47:28.166Z,27.90
2017-08-15T07:49:55.689Z,28.40
2017-08-15T07:52:23.245Z,28.90
2017-08-15T07:54:50.778Z,29.30
2017-08-15T07:57:18.327Z,29.40
2017-08-15T07:59:45.869Z,30.40
2017-08-15T08:02:13.389Z,29.70
2017-08-15T08:04:40.971Z,29.90
2017-08-15T08:07:08.498Z,30.30
2017-08-15T08:09:36.032Z,29.80
2017-08-15T08:12:04.354Z,29.90
2017-08-15T08:14:31.884Z,29.80
2017-08-15T08:17:00.186Z,29.20
2017-08-15T08:19:27.733Z,29.20
2017-08-15T08:21:55.264Z,30.50
2017-08-15T08:24:22.813Z,30.70
2017-08-15T08:26:50.349Z,31.00
2017-08-15T08:29:17.885Z,31.20
2017-08-15T08:31:45.434Z,31.50
2017-08-15T08:34:12.975Z,31.80
2017-08-15T08:36:41.281Z,32.20
2017-08-15T08:39:08.837Z,32.20
2017-08-15T08:41:36.365Z,32.00
2017-08-15T08:44:04.705Z,32.20
2017-08-15T08:46:32.252Z,32.20
2017-08-15T08:48:59.793Z,32.10
2017-08-15T08:51:27.340Z,32.60
2017-08-15T08:53:54.880Z,32.50
2017-08-15T08:56:23.170Z,32.20
2017-08-15T08:58:50.743Z,32.30
2017-08-15T09:01:18.269Z,31.90
2017-08-15T09:03:46.581Z,32.20
2017-08-15T09:06:14.117Z,32.20
2017-08-15T09:08:42.421Z,33.00
2017-08-15T09:11:09.975Z,32.90
2017-08-15T09:13:37.502Z,32.90
2017-08-15T09:16:05.060Z,32.70
2017-08-15T09:18:32.589Z,33.90
2017-08-15T09:21:00.129Z,33.20
2017-08-15T09:23:27.689Z,33.70
2017-08-15T09:25:55.221Z,33.60
2017-08-15T09:28:23.556Z,34.20
2017-08-15T09:30:51.113Z,34.20
2017-08-15T09:33:18.641Z,34.40
2017-08-15T09:35:46.172Z,34.80
2017-08-15T09:38:14.504Z,34.20
2017-08-15T09:40:42.033Z,34.20
2017-08-15T09:43:09.577Z,35.00
2017-08-15T09:45:37.875Z,34.70
2017-08-15T09:48:05.413Z,34.70
2017-08-15T09:50:32.961Z,34.70
2017-08-15T09:53:01.254Z,34.30
2017-08-15T09:55:28.804Z,34.30
2017-08-15T09:57:56.377Z,33.40
2017-08-15T10:00:23.944Z,33.20
2017-08-15T10:02:51.498Z,32.70
2017-08-15T10:05:19.049Z,32.00
2017-08-15T10:07:46.597Z,31.80
2017-08-15T10:10:14.941Z,33.00
2017-08-15T10:12:42.491Z,33.00
2017-08-15T10:15:10.017Z,34.20
2017-08-15T10:17:37.570Z,34.60
2017-08-15T10:20:05.105Z,34.80
2017-08-15T10:22:32.641Z,36.30
2017-08-15T10:25:00.201Z,35.50
2017-08-15T10:27:27.738Z,35.50
2017-08-15T10:29:55.277Z,35.10
2017-08-15T10:32:22.850Z,35.50
2017-08-15T10:34:50.393Z,35.30
2017-08-15T10:37:17.916Z,35.60
2017-08-15T10:39:45.453Z,36.60
2017-08-15T10:42:13.010Z,36.80
2017-08-15T10:44:40.536Z,36.00
2017-08-15T10:47:08.085Z,36.50
2017-08-15T10:49:35.648Z,37.00
2017-08-15T10:52:03.181Z,35.70
2017-08-15T10:54:31.502Z,36.10
2017-08-15T10:56:59.041Z,36.10
2017-08-15T10:59:26.569Z,36.40
2017-08-15T11:01:54.134Z,36.00
2017-08-15T11:04:21.670Z,36.10
2017-08-15T11:06:49.966Z,34.90
2017-08-15T11:09:17.532Z,34.90
2017-08-15T11:11:45.067Z,34.70
2017-08-15T11:14:13.379Z,34.00
2017-08-15T11:16:40.908Z,34.00
2017-08-15T11:19:08.445Z,33.10
2017-08-15T11:21:36.013Z,32.50
2017-08-15T11:24:04.345Z,32.50
2017-08-15T11:26:31.877Z,32.50
2017-08-15T11:28:59.461Z,32.30
2017-08-15T11:31:27.000Z,32.20
2017-08-15T11:33:54.559Z,32.00
2017-08-15T11:36:22.092Z,31.70
2017-08-15T11:38:50.421Z,31.50
2017-08-15T11:41:17.954Z,31.50
2017-08-15T11:43:45.499Z,31.10
2017-08-15T11:46:13.826Z,30.60
2017-08-15T11:48:41.352Z,30.60
2017-08-15T11:51:08.900Z,30.90
2017-08-15T11:53:36.473Z,30.70
2017-08-15T11:56:04.016Z,30.50
2017-08-15T11:58:32.328Z,30.90
2017-08-15T12:00:59.853Z,30.90
2017-08-15T12:03:28.182Z,30.80
2017-08-15T12:05:55.712Z,30.80
2017-08-15T12:08:23.245Z,30.80
2017-08-15T12:10:51.557Z,31.10
2017-08-15T12:13:19.088Z,31.20
2017-08-15T12:15:46.621Z,31.30
2017-08-15T12:18:14.193Z,31.70
2017-08-15T12:20:41.749Z,31.90
2017-08-15T12:23:09.310Z,31.90
2017-08-15T12:25:36.837Z,31.50
2017-08-15T12:28:05.148Z,31.50
2017-08-15T12:30:32.676Z,31.50
2017-08-15T12:33:00.221Z,30.90
2017-08-15T12:35:28.529Z,30.80
2017-08-15T12:37:56.053Z,30.80
2017-08-15T12:40:24.397Z,31.30
2017-08-15T12:42:51.915Z,31.30
2017-08-15T12:45:19.469Z,31.10
2017-08-15T12:47:47.781Z,31.10
2017-08-15T12:50:15.314Z,31.10
2017-08-15T12:52:42.868Z,31.00
2017-08-15T12:55:10.389Z,30.40
2017-08-15T12:57:37.926Z,30.00
2017-08-15T13:00:05.512Z,29.30
2017-08-15T13:02:33.070Z,28.80
2017-08-15T13:05:00.594Z,28.60
2017-08-15T13:07:28.145Z,28.40
2017-08-15T13:09:55.701Z,28.80
2017-08-15T13:12:23.237Z,28.70
2017-08-15T13:14:51.551Z,29.10
2017-08-15T13:17:19.086Z,29.00
2017-08-15T13:19:46.657Z,28.60
2017-08-15T13:22:14.232Z,28.40
2017-08-15T13:24:41.784Z,28.50
2017-08-15T13:27:09.337Z,28.20
2017-08-15T13:29:36.866Z,28.30
2017-08-15T13:32:05.161Z,28.00
2017-08-15T13:34:32.732Z,28.00
2017-08-15T13:37:00.265Z,27.90
2017-08-15T13:39:28.569Z,28.40
2017-08-15T13:41:56.097Z,28.40
2017-08-15T13:44:24.420Z,28.50
2017-08-15T13:46:51.968Z,28.50
2017-08-15T13:49:19.518Z,28.40
2017-08-15T13:51:47.086Z,28.50
2017-08-15T13:54:14.691Z,28.50
2017-08-15T13:56:42.232Z,28.70
2017-08-15T13:59:09.815Z,28.80
2017-08-15T14:01:37.333Z,28.90
2017-08-15T14:04:04.897Z,29.30
2017-08-15T14:06:32.441Z,29.60
2017-08-15T14:08:59.973Z,29.70
2017-08-15T14:11:28.299Z,29.80
2017-08-15T14:13:55.853Z,29.80
2017-08-15T14:16:23.398Z,29.80
2017-08-15T14:18:50.951Z,29.80
2017-08-15T14:21:18.493Z,29.60
2017-08-15T14:23:46.812Z,30.00
2017-08-15T14:26:14.369Z,29.90
2017-08-15T14:28:41.936Z,30.00
2017-08-15T14:31:09.519Z,29.90
2017-08-15T14:33:37.049Z,29.80
2017-08-15T14:36:04.603Z,29.80
2017-08-15T14:38:32.154Z,29.70
2017-08-15T14:40:59.678Z,29.90
2017-08-15T14:43:28.003Z,29.70
2017-08-15T14:45:55.547Z,29.70
2017-08-15T14:48:23.085Z,29.90
2017-08-15T14:50:51.407Z,29.20
2017-08-15T14:53:19.067Z,29.20
2017-08-15T14:55:46.623Z,29.10
2017-08-15T14:58:14.194Z,29.20
2017-08-15T15:00:41.744Z,29.50
2017-08-15T15:03:09.320Z,29.80
2017-08-15T15:05:36.867Z,29.90
2017-08-15T15:08:04.427Z,29.80
2017-08-15T15:10:32.001Z,30.00
2017-08-15T15:12:59.554Z,29.90
2017-08-15T15:15:27.118Z,29.80
2017-08-15T15:17:54.648Z,29.80
2017-08-15T15:20:22.197Z,29.70
2017-08-15T15:22:49.737Z,29.70
2017-08-15T15:25:18.064Z,29.50
2017-08-15T15:27:45.629Z,29.50
2017-08-15T15:30:13.154Z,29.20
2017-08-15T15:32:40.686Z,28.90
2017-08-15T15:35:08.213Z,28.50
2017-08-15T15:37:35.756Z,28.30
2017-08-15T15:40:03.273Z,28.20
2017-08-15T15:42:31.570Z,27.70
2017-08-15T15:44:59.153Z,27.70
2017-08-15T15:47:26.673Z,27.60
2017-08-15T15:49:55.025Z,27.20
2017-08-15T15:52:22.542Z,27.20
2017-08-15T15:54:50.085Z,27.10
2017-08-15T15:57:17.622Z,27.10
2017-08-15T15:59:45.924Z,27.00
2017-08-15T16:02:13.485Z,26.90
2017-08-15T16:04:41.009Z,26.90
2017-08-15T16:07:08.546Z,26.70
2017-08-15T16:09:36.118Z,26.50
2017-08-15T16:12:03.670Z,26.40
2017-08-15T16:14:31.212Z,26.30
2017-08-15T16:16:58.745Z,26.20
2017-08-15T16:19:26.438Z,26.00
2017-08-15T16:21:53.961Z,25.90
2017-08-15T16:24:21.489Z,25.70
2017-08-15T16:26:49.059Z,25.50
2017-08-15T16:29:17.361Z,25.20
2017-08-15T16:31:44.914Z,25.10
2017-08-15T16:34:12.465Z,25.00
2017-08-15T16:36:40.777Z,24.70
2017-08-15T16:39:08.345Z,24.60
2017-08-15T16:41:35.885Z,24.50
2017-08-15T16:44:03.451Z,24.40
2017-08-15T16:46:31.022Z,24.30
2017-08-15T16:48:58.569Z,24.00
2017-08-15T16:51:26.105Z,23.90
2017-08-15T16:53:54.416Z,23.70
2017-08-15T16:56:21.965Z,23.70
2017-08-15T16:58:49.502Z,23.60
2017-08-15T17:01:17.793Z,23.60
2017-08-15T17:03:45.338Z,23.60
2017-08-15T17:06:13.650Z,23.30
2017-08-15T17:08:41.197Z,23.30
2017-08-15T17:11:08.762Z,23.30
2017-08-15T17:13:36.290Z,23.30
2017-08-15T17:16:04.710Z,22.50
2017-08-15T17:18:32.256Z,22.50
2017-08-15T17:20:59.790Z,22.20
2017-08-15T17:23:28.119Z,21.70
2017-08-15T17:25:55.651Z,21.60
2017-08-15T17:28:23.173Z,21.50
2017-08-15T17:30:51.489Z,21.50
2017-08-15T17:33:19.092Z,21.40
2017-08-15T17:35:46.630Z,21.40
2017-08-15T17:38:14.261Z,21.40
2017-08-15T17:40:41.817Z,21.50
2017-08-15T17:43:09.354Z,21.40
2017-08-15T17:45:37.654Z,21.50
2017-08-15T17:48:05.222Z,21.40
2017-08-15T17:50:32.764Z,21.50
2017-08-15T17:53:01.058Z,21.20
2017-08-15T17:55:28.612Z,21.20
2017-08-15T17:57:56.165Z,21.20
2017-08-15T18:00:23.716Z,21.20
2017-08-15T18:02:52.013Z,21.10
2017-08-15T18:05:19.594Z,21.00
2017-08-15T18:07:47.126Z,21.00
2017-08-15T18:10:14.677Z,21.00
2017-08-15T18:12:42.969Z,20.90
2017-08-15T18:15:10.528Z,20.90
2017-08-15T18:17:38.057Z,20.80
2017-08-15T18:20:05.591Z,20.80
2017-08-15T18:22:33.140Z,20.60
2017-08-15T18:25:00.731Z,20.70
2017-08-15T18:27:28.300Z,20.60
2017-08-15T18:29:56.586Z,20.50
2017-08-15T18:32:24.928Z,20.50
2017-08-15T18:34:52.503Z,20.50
2017-08-15T18:37:20.079Z,20.50
2017-08-15T18:39:48.509Z,20.60
2017-08-15T18:42:16.051Z,20.60
2017-08-15T18:44:43.604Z,20.60
2017-08-15T18:47:11.172Z,20.60
2017-08-15T18:49:38.693Z,20.60
2017-08-15T18:52:07.025Z,20.60
2017-08-15T18:54:34.584Z,20.50
2017-08-15T18:57:02.135Z,20.50
2017-08-15T18:59:30.233Z,20.50
2017-08-15T19:01:57.759Z,20.40
2017-08-15T19:04:25.309Z,20.50
2017-08-15T19:06:52.932Z,20.40
2017-08-15T19:09:20.506Z,20.30
2017-08-15T19:11:48.029Z,20.30
2017-08-15T19:14:15.590Z,20.30
2017-08-15T19:16:43.130Z,20.20
2017-08-15T19:19:10.662Z,20.20
2017-08-15T19:21:38.227Z,20.20
2017-08-15T19:24:05.776Z,20.20
2017-08-15T19:26:33.308Z,20.20
2017-08-15T19:29:01.617Z,20.20
2017-08-15T19:31:29.158Z,20.20
2017-08-15T19:33:56.696Z,20.10
2017-08-15T19:36:25.043Z,20.00
2017-08-15T19:38:52.597Z,20.00
2017-08-15T19:41:20.160Z,20.00
2017-08-15T19:43:47.697Z,20.00
2017-08-15T19:46:15.254Z,19.90
2017-08-15T19:48:42.812Z,19.90
2017-08-15T19:51:10.361Z,19.80
2017-08-15T19:53:37.909Z,19.80
2017-08-15T19:56:05.446Z,19.70
2017-08-15T19:58:33.753Z,19.70
2017-08-15T20:01:01.367Z,19.70
2017-08-15T20:03:28.914Z,19.70
2017-08-15T20:05:56.476Z,19.70
2017-08-15T20:08:24.043Z,19.70
2017-08-15T20:10:51.610Z,19.60
2017-08-15T20:13:19.147Z,19.60
2017-08-15T20:15:46.677Z,19.60
2017-08-15T20:18:14.254Z,19.50
2017-08-15T20:20:41.828Z,19.50
2017-08-15T20:23:09.403Z,19.50
2017-08-15T20:25:36.933Z,19.40
2017-08-15T20:28:04.511Z,19.40
2017-08-15T20:30:32.086Z,19.40
2017-08-15T20:32:59.711Z,19.20
2017-08-15T20:35:27.276Z,19.30
2017-08-15T20:37:55.855Z,19.20
2017-08-15T20:40:23.430Z,19.10
2017-08-15T20:42:51.247Z,19.20
2017-08-15T20:45:18.787Z,19.20
2017-08-15T20:47:47.127Z,19.10
2017-08-15T20:50:14.697Z,19.10
2017-08-15T20:52:42.270Z,19.00
2017-08-15T20:55:09.861Z,18.90
2017-08-15T20:57:37.392Z,18.80
2017-08-15T21:00:05.011Z,18.90
2017-08-15T21:02:32.598Z,18.80
2017-08-15T21:05:00.183Z,18.80
2017-08-15T21:07:27.721Z,18.80
2017-08-15T21:09:55.259Z,18.70
2017-08-15T21:12:22.806Z,18.80
2017-08-15T21:14:50.350Z,18.80
2017-08-15T21:17:17.888Z,18.70
2017-08-15T21:19:46.208Z,18.70
2017-08-15T21:22:13.762Z,18.70
2017-08-15T21:24:41.328Z,18.70
2017-08-15T21:27:08.859Z,18.60
2017-08-15T21:29:36.429Z,18.60
2017-08-15T21:32:03.993Z,18.60
2017-08-15T21:34:31.540Z,18.60
2017-08-15T21:36:59.132Z,18.50
2017-08-15T21:39:26.797Z,18.50
2017-08-15T21:41:54.332Z,18.50
2017-08-15T21:44:22.056Z,18.50
2017-08-15T21:46:49.590Z,18.60
2017-08-15T21:49:17.202Z,18.70
2017-08-15T21:51:45.517Z,18.80
2017-08-15T21:54:13.066Z,18.80
2017-08-15T21:56:40.593Z,18.70
2017-08-15T21:59:08.899Z,18.70
2017-08-15T22:01:42.822Z,18.70
2017-08-15T22:04:10.374Z,18.70
2017-08-15T22:06:37.963Z,18.60
2017-08-15T22:09:05.532Z,18.70
2017-08-15T22:11:33.083Z,18.70
2017-08-15T22:14:01.492Z,18.70
2017-08-15T22:16:29.028Z,18.70
2017-08-15T22:18:56.594Z,18.80
2017-08-15T22:21:24.153Z,18.80
2017-08-15T22:23:51.708Z,18.90
2017-08-15T22:26:19.244Z,18.90
2017-08-15T22:28:46.796Z,19.00
2017-08-15T22:31:14.324Z,19.00
2017-08-15T22:33:41.845Z,19.00
2017-08-15T22:36:09.409Z,19.00
2017-08-15T22:38:36.942Z,19.00
2017-08-15T22:41:04.473Z,19.10
2017-08-15T22:43:32.797Z,19.10
2017-08-15T22:46:00.377Z,19.00
2017-08-15T22:48:27.935Z,19.10
2017-08-15T22:50:55.473Z,19.30
2017-08-15T22:53:23.021Z,19.40
2017-08-15T22:55:50.557Z,19.50
2017-08-15T22:58:18.113Z,19.50
2017-08-15T23:00:45.660Z,19.50
2017-08-15T23:03:13.191Z,19.50
2017-08-15T23:05:40.745Z,19.50
2017-08-15T23:08:08.280Z,19.50
2017-08-15T23:10:35.840Z,19.50
2017-08-15T23:13:04.154Z,19.50
2017-08-15T23:15:31.676Z,19.50
2017-08-15T23:18:00.020Z,19.30
2017-08-15T23:20:27.549Z,19.30
2017-08-15T23:22:55.116Z,19.30
2017-08-15T23:25:22.653Z,19.10
2017-08-15T23:27:50.205Z,18.90
2017-08-15T23:30:17.757Z,18.70
2017-08-15T23:32:45.295Z,18.70
2017-08-15T23:35:12.842Z,18.60
2017-08-15T23:37:40.422Z,18.50
2017-08-15T23:40:07.978Z,18.50
2017-08-15T23:42:35.560Z,18.30
2017-08-15T23:45:03.130Z,18.10
2017-08-15T23:47:31.440Z,17.90
2017-08-15T23:49:58.971Z,17.90
2017-08-15T23:52:27.296Z,17.90
2017-08-15T23:54:54.836Z,17.90
2017-08-15T23:57:22.386Z,17.80
2017-08-15T23:59:49.940Z,17.80
